createdAt,value
2018-04-30T00:01:49.452Z,99264.20
2018-04-30T00:04:20.550Z,99123.08
2018-04-30T00:06:50.817Z,99267.38
2018-04-30T00:09:21.262Z,99251.88
2018-04-30T00:11:52.443Z,99245.58
2018-04-30T00:14:22.663Z,99241.23
2018-04-30T00:16:53.095Z,99223.39
2018-04-30T00:19:23.192Z,99233.60
2018-04-30T00:21:53.492Z,99232.46
2018-04-30T00:24:24.001Z,99230.52
2018-04-30T00:26:54.188Z,99242.41
2018-04-30T00:29:24.557Z,99242.82
2018-04-30T00:31:55.201Z,99242.80
2018-04-30T00:34:25.439Z,99232.28
2018-04-30T00:36:55.575Z,99219.78
2018-04-30T00:39:26.101Z,99207.16
2018-04-30T00:41:56.265Z,99187.55
2018-04-30T00:44:26.468Z,99182.81
2018-04-30T00:46:57.260Z,99190.37
2018-04-30T00:49:27.421Z,99201.81
2018-04-30T00:51:57.752Z,99211.72
2018-04-30T00:54:36.893Z,99220.21
2018-04-30T00:57:07.117Z,99257.45
2018-04-30T00:59:38.008Z,99296.10
2018-04-30T01:02:08.489Z,99291.80
2018-04-30T01:04:38.707Z,99283.77
2018-04-30T01:07:09.254Z,99280.41
2018-04-30T01:09:39.594Z,99269.23
2018-04-30T01:12:10.138Z,99246.73
2018-04-30T01:14:40.463Z,99240.22
2018-04-30T01:17:11.010Z,99259.74
2018-04-30T01:19:42.229Z,99233.39
2018-04-30T01:22:12.481Z,99211.08
2018-04-30T01:24:42.860Z,99224.50
2018-04-30T01:27:13.244Z,99216.64
2018-04-30T01:29:43.638Z,99203.25
2018-04-30T01:32:14.578Z,99216.46
2018-04-30T01:34:45.158Z,99220.88
2018-04-30T01:37:15.407Z,99206.20
2018-04-30T01:39:45.516Z,99217.56
2018-04-30T01:42:15.748Z,99211.22
2018-04-30T01:44:46.102Z,99213.98
2018-04-30T01:47:16.776Z,99225.16
2018-04-30T01:49:47.304Z,99226.20
2018-04-30T01:52:17.838Z,99233.41
2018-04-30T01:54:48.523Z,99223.28
2018-04-30T01:57:18.964Z,99227.28
2018-04-30T01:59:49.241Z,99219.11
2018-04-30T02:02:19.301Z,99218.26
2018-04-30T02:04:49.515Z,99217.61
2018-04-30T02:07:27.475Z,99216.87
2018-04-30T02:12:55.289Z,99224.14
2018-04-30T02:15:26.404Z,99212.87
2018-04-30T02:17:58.366Z,99209.00
2018-04-30T02:20:28.626Z,99209.75
2018-04-30T02:23:00.230Z,99221.61
2018-04-30T02:25:31.209Z,99218.73
2018-04-30T02:28:02.598Z,99231.84
2018-04-30T02:30:33.070Z,99221.19
2018-04-30T02:33:04.103Z,99210.92
2018-04-30T02:35:39.067Z,99216.42
2018-04-30T02:38:14.224Z,99211.08
2018-04-30T02:40:45.317Z,99210.48
2018-04-30T02:43:16.145Z,99206.08
2018-04-30T02:45:46.843Z,99195.35
2018-04-30T02:48:17.129Z,99175.47
2018-04-30T02:50:47.657Z,99194.45
2018-04-30T02:53:18.533Z,99191.66
2018-04-30T02:55:49.415Z,99186.52
2018-04-30T02:58:19.651Z,99195.81
2018-04-30T03:00:50.109Z,99193.02
2018-04-30T03:03:20.279Z,99191.48
2018-04-30T03:05:50.450Z,99197.59
2018-04-30T03:08:21.007Z,99213.80
2018-04-30T03:10:51.750Z,99220.73
2018-04-30T03:13:21.870Z,99220.51
2018-04-30T03:15:52.181Z,99192.81
2018-04-30T03:18:22.488Z,99227.23
2018-04-30T03:20:52.568Z,99232.03
2018-04-30T03:23:22.826Z,99234.73
2018-04-30T03:25:53.222Z,99236.70
2018-04-30T03:28:23.395Z,99234.42
2018-04-30T03:30:55.207Z,99248.66
2018-04-30T03:33:25.390Z,99248.16
2018-04-30T03:35:55.822Z,99255.78
2018-04-30T03:40:51.928Z,99251.38
2018-04-30T03:43:22.187Z,99252.63
2018-04-30T03:45:54.836Z,99258.09
2018-04-30T03:48:24.978Z,99260.56
2018-04-30T03:50:55.995Z,99264.68
2018-04-30T03:53:26.257Z,99262.19
2018-04-30T03:55:56.985Z,99259.89
2018-04-30T03:58:27.139Z,99257.11
2018-04-30T04:02:10.872Z,99258.05
2018-04-30T04:06:56.229Z,99277.34
2018-04-30T04:09:26.722Z,99274.61
2018-04-30T04:14:31.761Z,99263.78
2018-04-30T04:17:02.245Z,99266.75
2018-04-30T04:19:33.943Z,99275.88
2018-04-30T04:22:13.198Z,99272.47
2018-04-30T04:24:43.600Z,99294.28
2018-04-30T04:27:15.164Z,99297.47
2018-04-30T04:29:45.459Z,99294.27
2018-04-30T04:32:16.192Z,99299.59
2018-04-30T04:34:46.763Z,99304.05
2018-04-30T04:37:17.009Z,99283.65
2018-04-30T04:39:48.202Z,99302.04
2018-04-30T04:42:18.545Z,99311.03
2018-04-30T04:44:49.018Z,99308.33
2018-04-30T04:47:19.996Z,99308.73
2018-04-30T04:49:50.551Z,99312.91
2018-04-30T04:52:20.934Z,99300.03
2018-04-30T04:54:51.543Z,99321.67
2018-04-30T04:57:21.978Z,99334.05
2018-04-30T04:59:52.411Z,99332.86
2018-04-30T05:02:23.506Z,99333.73
2018-04-30T05:04:54.205Z,99331.17
2018-04-30T05:07:25.250Z,99329.27
2018-04-30T05:09:56.308Z,99342.16
2018-04-30T05:12:26.805Z,99352.77
2018-04-30T05:14:57.458Z,99351.95
2018-04-30T05:17:28.417Z,99348.09
2018-04-30T05:20:02.871Z,99352.67
2018-04-30T05:22:34.097Z,99341.43
2018-04-30T05:25:05.066Z,99345.77
2018-04-30T05:27:35.621Z,99342.93
2018-04-30T05:30:08.094Z,99346.05
2018-04-30T05:32:38.866Z,99351.91
2018-04-30T05:35:10.139Z,99364.61
2018-04-30T05:37:40.664Z,99364.05
2018-04-30T05:40:10.932Z,99365.83
2018-04-30T05:42:42.258Z,99379.66
2018-04-30T05:45:40.785Z,99382.33
2018-04-30T05:48:11.636Z,99386.77
2018-04-30T05:51:06.422Z,99392.27
2018-04-30T05:53:37.429Z,99384.60
2018-04-30T05:56:07.829Z,99397.05
2018-04-30T05:58:41.218Z,99405.27
2018-04-30T06:01:12.645Z,99399.36
2018-04-30T06:03:44.546Z,99389.74
2018-04-30T06:06:17.441Z,99383.64
2018-04-30T06:08:48.171Z,99376.88
2018-04-30T06:11:19.779Z,99386.64
2018-04-30T06:13:51.002Z,99401.63
2018-04-30T06:16:21.819Z,99415.95
2018-04-30T06:18:54.866Z,99420.52
2018-04-30T06:21:26.632Z,99430.22
2018-04-30T06:23:58.305Z,99432.17
2018-04-30T06:26:30.230Z,99435.58
2018-04-30T06:29:01.528Z,99435.73
2018-04-30T06:31:33.065Z,99435.84
2018-04-30T06:34:03.465Z,99439.80
2018-04-30T06:36:34.462Z,99445.47
2018-04-30T06:39:08.493Z,99444.26
2018-04-30T06:41:39.431Z,99453.05
2018-04-30T06:44:10.102Z,99448.24
2018-04-30T06:46:40.459Z,99449.44
2018-04-30T06:49:11.047Z,99454.48
2018-04-30T06:51:51.476Z,99432.75
2018-04-30T06:54:23.670Z,99446.15
2018-04-30T06:56:54.083Z,99446.62
2018-04-30T06:59:25.843Z,99443.70
2018-04-30T07:02:04.366Z,99452.86
2018-04-30T07:04:39.458Z,99445.09
2018-04-30T07:07:10.449Z,99450.09
2018-04-30T07:09:41.630Z,99453.55
2018-04-30T07:12:12.420Z,99461.59
2018-04-30T07:14:43.072Z,99468.50
2018-04-30T07:17:15.140Z,99475.25
2018-04-30T07:19:45.831Z,99475.11
2018-04-30T07:22:16.111Z,99463.82
2018-04-30T07:24:46.796Z,99467.87
2018-04-30T07:27:17.466Z,99469.41
2018-04-30T07:29:48.219Z,99474.59
2018-04-30T07:32:18.923Z,99468.44
2018-04-30T07:34:49.236Z,99469.92
2018-04-30T07:37:26.992Z,99472.23
2018-04-30T07:39:57.336Z,99472.00
2018-04-30T07:42:29.290Z,99446.95
2018-04-30T07:45:00.637Z,99472.88
2018-04-30T07:52:32.371Z,99502.08
2018-04-30T07:55:02.634Z,99492.44
2018-04-30T07:57:35.087Z,99482.92
2018-04-30T08:00:10.519Z,99493.23
2018-04-30T08:02:46.539Z,99488.84
2018-04-30T08:05:20.730Z,99494.53
2018-04-30T08:08:08.681Z,99499.27
2018-04-30T08:10:45.549Z,99487.33
2018-04-30T08:13:23.758Z,99497.25
2018-04-30T08:15:58.373Z,99506.45
2018-04-30T08:18:28.530Z,99494.80
2018-04-30T08:21:00.104Z,99504.84
2018-04-30T08:23:36.422Z,99497.84
2018-04-30T08:26:06.850Z,99494.31
2018-04-30T08:28:37.271Z,99502.27
2018-04-30T08:31:07.811Z,99488.77
2018-04-30T08:33:37.987Z,99522.24
2018-04-30T08:36:09.921Z,99527.91
2018-04-30T08:38:40.403Z,99534.22
2018-04-30T08:41:11.037Z,99521.39
2018-04-30T08:43:42.381Z,99534.33
2018-04-30T08:46:13.245Z,99526.95
2018-04-30T08:48:43.937Z,99534.31
2018-04-30T08:51:14.590Z,99537.13
2018-04-30T08:53:44.860Z,99537.96
2018-04-30T08:56:15.925Z,99544.05
2018-04-30T08:58:54.801Z,99549.81
2018-04-30T09:01:29.243Z,99561.00
2018-04-30T09:04:01.155Z,99552.83
2018-04-30T09:06:35.360Z,99560.77
2018-04-30T09:09:06.709Z,99551.41
2018-04-30T09:11:50.751Z,99551.41
2018-04-30T09:14:29.152Z,99556.00
2018-04-30T09:17:05.996Z,99561.27
2018-04-30T09:19:42.122Z,99553.74
2018-04-30T09:22:15.376Z,99547.70
2018-04-30T09:24:47.089Z,99552.95
2018-04-30T09:27:17.686Z,99543.19
2018-04-30T09:29:50.094Z,99537.23
2018-04-30T09:32:21.951Z,99535.25
2018-04-30T09:34:52.274Z,99554.85
2018-04-30T09:37:26.986Z,99550.39
2018-04-30T09:39:58.028Z,99538.11
2018-04-30T09:42:29.786Z,99547.91
2018-04-30T09:45:03.756Z,99539.39
2018-04-30T09:47:35.788Z,99537.41
2018-04-30T09:50:09.018Z,99539.69
2018-04-30T09:52:50.690Z,99553.30
2018-04-30T10:00:43.398Z,99542.03
2018-04-30T10:03:22.421Z,99548.14
2018-04-30T10:05:55.034Z,99548.14
2018-04-30T10:08:27.585Z,99534.05
2018-04-30T10:14:08.938Z,99570.27
2018-04-30T10:16:50.961Z,99562.66
2018-04-30T10:19:25.115Z,99561.47
2018-04-30T10:21:56.914Z,99561.29
2018-04-30T10:24:27.999Z,99549.10
2018-04-30T10:27:00.024Z,99556.28
2018-04-30T10:29:31.197Z,99537.92
2018-04-30T10:32:03.489Z,99526.91
2018-04-30T10:34:35.199Z,99542.78
2018-04-30T10:37:09.353Z,99529.14
2018-04-30T10:39:40.705Z,99541.41
2018-04-30T10:42:12.383Z,99545.14
2018-04-30T10:44:50.698Z,99529.57
2018-04-30T10:47:21.941Z,99547.36
2018-04-30T10:50:01.220Z,99541.12
2018-04-30T10:55:45.132Z,99544.63
2018-04-30T10:58:18.785Z,99534.13
2018-04-30T11:03:55.667Z,99508.78
2018-04-30T11:06:37.714Z,99517.11
2018-04-30T11:09:15.064Z,99529.46
2018-04-30T11:11:48.316Z,99530.20
2018-04-30T11:14:18.934Z,99525.16
2018-04-30T11:16:50.833Z,99524.69
2018-04-30T11:19:25.643Z,99532.65
2018-04-30T11:22:06.650Z,99528.83
2018-04-30T11:24:37.947Z,99525.41
2018-04-30T11:27:09.014Z,99540.53
2018-04-30T11:29:39.748Z,99514.95
2018-04-30T11:32:12.533Z,99498.08
2018-04-30T11:34:44.436Z,99516.42
2018-04-30T11:37:46.029Z,99521.65
2018-04-30T11:40:19.985Z,99529.14
2018-04-30T11:42:54.849Z,99507.30
2018-04-30T11:45:26.099Z,99515.27
2018-04-30T11:48:01.697Z,99527.73
2018-04-30T11:50:35.010Z,99535.20
2018-04-30T11:53:11.138Z,99537.95
2018-04-30T11:56:01.833Z,99536.21
2018-04-30T11:58:52.494Z,99538.37
2018-04-30T12:01:38.795Z,99530.50
2018-04-30T12:04:13.095Z,99551.16
2018-04-30T12:06:52.558Z,99547.11
2018-04-30T12:09:23.626Z,99546.38
2018-04-30T12:11:54.699Z,99561.48
2018-04-30T12:14:29.382Z,99568.55
2018-04-30T12:17:10.002Z,99596.04
2018-04-30T12:19:41.828Z,99604.91
2018-04-30T12:22:13.855Z,99611.73
2018-04-30T12:24:45.852Z,99599.88
2018-04-30T12:27:17.952Z,99609.20
2018-04-30T12:29:53.376Z,99607.36
2018-04-30T12:32:27.781Z,99568.92
2018-04-30T12:35:03.340Z,99605.88
2018-04-30T12:37:39.076Z,99617.59
2018-04-30T12:40:10.687Z,99604.88
2018-04-30T12:42:43.625Z,99617.83
2018-04-30T12:45:18.248Z,99632.70
2018-04-30T12:47:48.663Z,99628.43
2018-04-30T12:50:23.776Z,99633.08
2018-04-30T12:53:05.055Z,99583.41
2018-04-30T12:55:44.293Z,99630.06
2018-04-30T12:58:20.629Z,99617.90
2018-04-30T13:00:52.811Z,99613.30
2018-04-30T13:03:23.439Z,99607.30
2018-04-30T13:05:55.593Z,99601.45
2018-04-30T13:08:35.314Z,99613.59
2018-04-30T13:11:08.838Z,99595.40
2018-04-30T13:14:16.807Z,99611.14
2018-04-30T13:16:50.130Z,99621.75
2018-04-30T13:22:04.007Z,99642.75
2018-04-30T13:24:34.313Z,99610.81
2018-04-30T13:27:04.537Z,99616.75
2018-04-30T13:29:36.858Z,99626.73
2018-04-30T13:32:11.118Z,99619.92
2018-04-30T13:34:41.571Z,99655.96
2018-04-30T13:37:12.049Z,99673.40
2018-04-30T13:39:42.217Z,99654.80
2018-04-30T13:42:13.061Z,99652.33
2018-04-30T13:44:44.129Z,99653.83
2018-04-30T13:47:27.667Z,99658.63
2018-04-30T13:50:04.982Z,99656.84
2018-04-30T13:55:23.646Z,99668.78
2018-04-30T13:57:55.494Z,99652.91
2018-04-30T14:00:26.144Z,99650.72
2018-04-30T14:03:05.847Z,99673.28
2018-04-30T14:05:36.835Z,99665.30
2018-04-30T14:08:07.851Z,99667.30
2018-04-30T14:10:39.167Z,99670.27
2018-04-30T14:13:10.978Z,99671.59
2018-04-30T14:15:42.367Z,99671.44
2018-04-30T14:18:18.584Z,99690.91
2018-04-30T14:20:52.666Z,99678.81
2018-04-30T14:23:23.538Z,99682.03
2018-04-30T14:25:53.915Z,99677.12
2018-04-30T14:28:25.810Z,99695.48
2018-04-30T14:30:58.494Z,99669.69
2018-04-30T14:33:29.540Z,99668.70
2018-04-30T14:36:01.464Z,99676.44
2018-04-30T14:38:34.539Z,99688.97
2018-04-30T14:41:19.972Z,99704.45
2018-04-30T14:44:01.110Z,99691.75
2018-04-30T14:46:35.184Z,99690.72
2018-04-30T14:49:09.068Z,99683.97
2018-04-30T14:51:40.683Z,99701.57
2018-04-30T14:54:11.466Z,99681.34
2018-04-30T14:56:43.715Z,99686.58
2018-04-30T14:59:19.877Z,99700.96
2018-04-30T15:01:53.115Z,99696.02
2018-04-30T15:04:30.851Z,99701.27
2018-04-30T15:10:09.017Z,99667.02
2018-04-30T15:12:40.625Z,99641.80
2018-04-30T15:15:16.019Z,99665.52
2018-04-30T15:17:47.284Z,99671.48
2018-04-30T15:20:18.290Z,99659.61
2018-04-30T15:22:48.972Z,99669.27
2018-04-30T15:25:21.949Z,99657.10
2018-04-30T15:27:53.278Z,99657.53
2018-04-30T15:30:25.436Z,99658.72
2018-04-30T15:33:01.965Z,99666.17
2018-04-30T15:35:34.341Z,99668.77
2018-04-30T15:38:16.522Z,99668.17
2018-04-30T15:40:50.217Z,99666.74
2018-04-30T15:43:20.530Z,99673.55
2018-04-30T15:45:51.067Z,99668.61
2018-04-30T15:48:26.579Z,99663.96
2018-04-30T15:53:40.619Z,99653.77
2018-04-30T15:56:11.090Z,99633.45
2018-04-30T15:58:46.545Z,99649.50
2018-04-30T16:01:18.161Z,99641.97
2018-04-30T16:03:50.232Z,99660.49
2018-04-30T16:06:21.193Z,99651.48
2018-04-30T16:08:55.583Z,99637.27
2018-04-30T16:11:26.724Z,99646.44
2018-04-30T16:13:57.010Z,99644.41
2018-04-30T16:16:28.463Z,99636.64
2018-04-30T16:19:04.632Z,99658.95
2018-04-30T16:21:37.476Z,99634.25
2018-04-30T16:24:08.486Z,99650.03
2018-04-30T16:26:39.154Z,99648.59
2018-04-30T16:29:11.255Z,99660.48
2018-04-30T16:31:59.137Z,99648.91
2018-04-30T16:34:36.420Z,99633.03
2018-04-30T16:37:07.804Z,99585.79
2018-04-30T16:39:39.171Z,99647.80
2018-04-30T16:42:10.596Z,99616.09
2018-04-30T16:44:41.976Z,99635.59
2018-04-30T16:47:12.635Z,99665.91
2018-04-30T16:49:44.056Z,99635.31
2018-04-30T16:52:15.324Z,99642.30
2018-04-30T16:54:45.980Z,99640.30
2018-04-30T16:57:20.011Z,99643.03
2018-04-30T16:59:50.827Z,99637.75
2018-04-30T17:02:22.822Z,99616.34
2018-04-30T17:04:53.209Z,99619.48
2018-04-30T17:07:26.271Z,99642.53
2018-04-30T17:09:56.744Z,99643.48
2018-04-30T17:12:26.927Z,99673.50
2018-04-30T17:14:57.144Z,99655.95
2018-04-30T17:17:33.610Z,99628.88
2018-04-30T17:20:09.507Z,99644.02
2018-04-30T17:22:40.294Z,99634.34
2018-04-30T17:25:11.489Z,99633.58
2018-04-30T17:27:43.219Z,99627.97
2018-04-30T17:30:17.144Z,99632.71
2018-04-30T17:32:47.614Z,99622.19
2018-04-30T17:35:17.868Z,99639.11
2018-04-30T17:37:49.387Z,99629.62
2018-04-30T17:40:21.217Z,99648.70
2018-04-30T17:43:01.618Z,99636.47
2018-04-30T17:45:32.694Z,99630.71
2018-04-30T17:48:03.964Z,99629.95
2018-04-30T17:50:34.734Z,99635.64
2018-04-30T17:53:44.767Z,99612.66
2018-04-30T17:56:15.290Z,99626.33
2018-04-30T17:58:45.896Z,99606.58
2018-04-30T18:01:17.071Z,99602.44
2018-04-30T18:03:50.787Z,99604.91
2018-04-30T18:06:21.596Z,99615.47
2018-04-30T18:08:53.408Z,99613.70
2018-04-30T18:11:23.884Z,99607.94
2018-04-30T18:13:54.217Z,99615.89
2018-04-30T18:16:25.569Z,99624.48
2018-04-30T18:18:57.439Z,99622.01
2018-04-30T18:21:28.573Z,99607.45
2018-04-30T18:26:41.362Z,99636.80
2018-04-30T18:29:15.164Z,99615.02
2018-04-30T18:31:46.192Z,99631.69
2018-04-30T18:34:16.727Z,99626.02
2018-04-30T18:36:49.559Z,99627.53
2018-04-30T18:39:25.657Z,99620.56
2018-04-30T18:42:01.733Z,99635.92
2018-04-30T18:47:38.390Z,99636.42
2018-04-30T18:50:31.499Z,99633.64
2018-04-30T18:53:03.744Z,99647.64
2018-04-30T18:55:37.196Z,99664.69
2018-04-30T18:58:08.088Z,99649.98
2018-04-30T19:00:45.101Z,99656.16
2018-04-30T19:03:26.678Z,99657.84
2018-04-30T19:06:03.310Z,99665.55
2018-04-30T19:08:45.668Z,99678.58
2018-04-30T19:11:17.152Z,99667.13
2018-04-30T19:13:54.592Z,99661.35
2018-04-30T19:16:28.237Z,99666.45
2018-04-30T19:19:00.379Z,99688.05
2018-04-30T19:21:31.468Z,99678.80
2018-04-30T19:24:02.940Z,99686.70
2018-04-30T19:26:33.318Z,99690.38
2018-04-30T19:29:05.639Z,99702.03
2018-04-30T19:31:36.443Z,99684.22
2018-04-30T19:34:06.877Z,99685.73
2018-04-30T19:36:38.868Z,99678.53
2018-04-30T19:39:11.905Z,99700.51
2018-04-30T19:41:44.638Z,99681.77
2018-04-30T19:44:15.179Z,99684.81
2018-04-30T19:46:49.424Z,99678.30
2018-04-30T19:49:22.683Z,99699.83
2018-04-30T19:51:53.941Z,99684.42
2018-04-30T19:54:27.385Z,99691.62
2018-04-30T19:57:07.211Z,99687.82
2018-04-30T19:59:39.268Z,99674.88
2018-04-30T20:02:11.780Z,99690.72
2018-04-30T20:04:42.962Z,99716.00
2018-04-30T20:07:13.748Z,99672.84
2018-04-30T20:09:45.366Z,99703.80
2018-04-30T20:12:17.252Z,99712.36
2018-04-30T20:14:48.552Z,99716.68
2018-04-30T20:17:18.941Z,99715.14
2018-04-30T20:19:50.041Z,99710.20
2018-04-30T20:22:21.068Z,99722.83
2018-04-30T20:24:52.580Z,99718.95
2018-04-30T20:27:23.204Z,99723.75
2018-04-30T20:30:00.573Z,99718.52
2018-04-30T20:32:33.343Z,99719.73
2018-04-30T20:35:11.093Z,99720.00
2018-04-30T20:37:50.659Z,99715.62
2018-04-30T20:40:20.971Z,99731.44
2018-04-30T20:42:52.995Z,99738.44
2018-04-30T20:45:24.487Z,99735.93
2018-04-30T20:47:56.067Z,99736.38
2018-04-30T20:50:27.365Z,99746.94
2018-04-30T20:52:57.882Z,99750.67
2018-04-30T20:55:29.684Z,99743.28
2018-04-30T20:58:01.507Z,99740.20
2018-04-30T21:00:32.236Z,99751.09
2018-04-30T21:03:02.592Z,99753.19
2018-04-30T21:08:24.983Z,99766.40
2018-04-30T21:10:55.705Z,99751.84
2018-04-30T21:13:26.149Z,99765.74
2018-04-30T21:15:56.780Z,99769.11
2018-04-30T21:18:27.491Z,99764.83
2018-04-30T21:20:58.042Z,99773.45
2018-04-30T21:23:29.214Z,99779.87
2018-04-30T21:26:00.175Z,99787.30
2018-04-30T21:28:30.478Z,99778.23
2018-04-30T21:31:01.418Z,99788.89
2018-04-30T21:33:34.075Z,99796.30
2018-04-30T21:36:04.687Z,99793.08
2018-04-30T21:38:36.510Z,99801.86
2018-04-30T21:41:06.486Z,99786.56
2018-04-30T21:43:36.806Z,99801.24
2018-04-30T21:46:07.730Z,99799.67
2018-04-30T21:48:38.074Z,99809.22
2018-04-30T21:51:08.731Z,99758.41
2018-04-30T21:53:44.531Z,99809.27
2018-04-30T21:56:14.721Z,99816.53
2018-04-30T21:58:45.008Z,99819.19
2018-04-30T22:01:15.616Z,99824.40
2018-04-30T22:03:47.779Z,99821.01
2018-04-30T22:06:19.923Z,99815.38
2018-04-30T22:08:50.629Z,99824.22
2018-04-30T22:11:21.446Z,99830.58
2018-04-30T22:13:52.575Z,99832.64
2018-04-30T22:16:23.228Z,99837.61
2018-04-30T22:18:53.680Z,99845.20
2018-04-30T22:21:25.180Z,99845.75
2018-04-30T22:23:55.674Z,99849.55
2018-04-30T22:26:26.287Z,99862.76
2018-04-30T22:29:13.359Z,99857.41
2018-04-30T22:31:44.663Z,99852.33
2018-04-30T22:34:15.143Z,99861.07
2018-04-30T22:36:46.124Z,99861.95
2018-04-30T22:39:18.487Z,99870.05
2018-04-30T22:41:49.769Z,99867.50
2018-04-30T22:44:20.487Z,99871.28
2018-04-30T22:46:53.585Z,99877.85
2018-04-30T22:49:25.150Z,99879.09
2018-04-30T22:51:57.136Z,99881.95
2018-04-30T22:54:29.674Z,99878.31
2018-04-30T22:57:00.287Z,99888.45
2018-04-30T22:59:31.932Z,99892.60
2018-04-30T23:02:07.739Z,99901.41
2018-04-30T23:04:38.501Z,99900.17
2018-04-30T23:07:10.283Z,99898.05
2018-04-30T23:09:40.709Z,99907.39
2018-04-30T23:12:11.244Z,99903.46
2018-04-30T23:14:41.579Z,99910.89
2018-04-30T23:17:14.245Z,99921.65
2018-04-30T23:19:44.444Z,99925.11
2018-04-30T23:22:16.734Z,99927.52
2018-04-30T23:24:47.054Z,99934.12
2018-04-30T23:27:17.438Z,99928.98
2018-04-30T23:29:51.473Z,99946.41
2018-04-30T23:32:22.883Z,99948.43
2018-04-30T23:34:57.426Z,99953.92
2018-04-30T23:37:28.298Z,99954.37
2018-04-30T23:39:59.285Z,99966.70
2018-04-30T23:42:35.160Z,99959.41
2018-04-30T23:45:08.862Z,99970.34
2018-04-30T23:47:39.378Z,99964.85
2018-04-30T23:50:10.058Z,99970.09
2018-04-30T23:52:42.254Z,99963.66
2018-04-30T23:55:12.718Z,99972.88
2018-04-30T23:57:45.627Z,99966.98
